Huvudsida
METAR-TAF:

METAR-TAF

Flygplatser :

Abu Dhabis internationella flygplats

Abu Dhabi, Förenade Arabemiraten

latitud: 24-26N, longitud: 054-39E, höjd: 16 m

Aktuellt väderrapport

Denna rapport gjordes för 27 minuter sedan, klockan 21:00 UTC
Vind 7 kt från väst
Temperatur 32°C
Fuktighet 63%
Tryck 996 hPa
Sikt 10 km eller mer
Inga moln under 1 500 m eller inga cumulonimbus

METAR: OMAA 192100Z 27007KT CAVOK 32/24 Q0996 NOSIG

Tid: 01:27 (21:27 UTC)

Väderprognos

Denna rapport gjordes för 4 timmar och 27 minuter sedan, klockan 17:00 UTC
Prognos gäller från 19 kl. 18 UTC till 21 kl. 00 UTC
Vind 9 kt från väst
Sikt: 8000 m
Blir
från 20 kl. 04 UTC till 20 kl. 06 UTC
Vind 16 kt från nord/nordväst
Blir
från 20 kl. 17 UTC till 20 kl. 19 UTC
Vind 6 kt från väst

TAF: OMAA 191700Z 1918/2100 27009KT 8000 NSC BECMG 2004/2006 33016KT BECMG 2017/2019 26006KT

Aktuella väderrapporter och prognoser från 4000 flygplatser (METAR- och TAF-rapporter).

De tillgängliga stationerna syns som gula och röda prickar på kartan.

För musen över prickarna för att se namnen på stationerna.

Klicka sedan för att få väderrapporter och prognoser.

För att ändra kartan: Klicka på de gröna knapparna med ett svart kors på för att zooma in; den gröna knappen med ett streck på för att zooma ut; eller på de gröna pilarna för angränsande kartor.


METAR-TAF: